Impacts METAR Board
IDs:

KFLL - Ft Lauderdale-Hollyw, FL, US

Updated at: 1900 UTC 08 Feb 2023
Potential Impact None Slight Moderate High
Time 08/07Z 08/08Z 08/09Z 08/10Z 08/11Z 08/12Z 08/13Z 08/14Z 08/15Z 08/16Z 08/17Z 08/18Z 08/19Z
Temp73 73 74 72 73 73 74 75 78 78 77 80 79
Dewpt56 57 56 55 56 56 56 56 58 58 58 58 58
Altim30.21 30.20 30.19 30.18 30.18 30.20 30.22 30.23 30.25 30.26 30.25 30.23 30.20
VIS10 10 10 10 10 10 10 10 10 10 10 10 10
CIG-- -- 45 -- 45 45 45 45 45 48 50 48 --
CoverFEWSCTOVCSCTBKNBKNBKNBKNBKNBKNBKNBKNFEW
FltCatVFRVFRVFRVFRVFRVFRVFRVFRVFRVFRVFRVFRVFR
WX--------------------------
WDir11013090120110130120130120100100100110
WSpd10 9 8 11 14 7 12 12 9 12 12 10 14
WGst-- -- -- -- -- -- -- -- -- -- -- -- 19
Raw hourly METARs
KFLL 080653Z 11010KT 10SM FEW035 FEW050 23/13 A3021 RMK AO2 SLP229 T02280133
KFLL 080753Z 13009KT 10SM SCT050 23/14 A3020 RMK AO2 SLP226 T02280139
KFLL 080853Z 09008KT 10SM OVC045 23/13 A3019 RMK AO2 SLP222 T02330133 57010
KFLL 080953Z 12011KT 10SM SCT045 22/13 A3018 RMK AO2 SLP220 T02220128
KFLL 081053Z 11014KT 10SM BKN045 23/13 A3018 RMK AO2 SLP220 T02280133
KFLL 081153Z 13007KT 10SM BKN045 23/13 A3020 RMK AO2 SLP227 T02280133 10233 20217 53005
KFLL 081253Z 12012KT 10SM BKN045 23/13 A3022 RMK AO2 SLP231 T02330133
KFLL 081353Z 13012KT 10SM BKN045 24/13 A3023 RMK AO2 SLP236 T02390133
KFLL 081453Z 12009KT 10SM BKN045 26/14 A3025 RMK AO2 SLP242 T02560144 53016
KFLL 081553Z 10012KT 10SM BKN048 26/14 A3026 RMK AO2 SLP247 T02560144
KFLL 081653Z 10012KT 10SM BKN050 25/14 A3025 RMK AO2 SLP243 T02500144
KFLL 081753Z 10010KT 10SM BKN048 27/14 A3023 RMK AO2 SLP235 T02670144 10267 20222 58008
KFLL 081853Z 11014G19KT 10SM FEW048 26/14 A3020 RMK AO2 SLP225 T02610144



Page loaded:  19:29 UTC  |   11:29 AM Pacific  |   12:29 PM Mountain  |   01:29 PM Central  |   02:29 PM Eastern

 

ADVISORIES

FORECASTS

FORECASTS

OBSERVATIONS

USER TOOLS

ABOUT US